Norfolk Ns (Chambers Fld) Airport
KNGU : now visible

Airfield :











YOU CAN JOIN US ON...

 
LOGIN :

Register | Disclaimer

   EN    FR    IT 

 









Legend :    VFR   Marginal VFR   IFR   Intensive IFR   Very Intensive IFR
Visi :
Ceiling :
>= 8 km
>= 3000ft
5 to 8 km
1000 to 3000 ft
1500m to 5 km
500 to 1000 ft
800 to 1500m
200 to 500 ft
< 800m
< 200 ft
Symbols :   Thunderstorms  Fog  Heavy snow  Heavy precipitations  Wind > 20 kt






- Airport Elevation : 17 ft


KNGU - Norfolk Ns (Chambers Fld)

CURRENT METAR :
  • 301559Z 33008KT 8SM SCT035 SCT250 32/23 A2987 RMK AO2 SLP114 T03170228 $

EXPIRED METARs :
  • 301459Z 32005KT 6SM HZ FEW050 SCT150 SCT300 31/22 A2987 RMK AO2 SLP114 T03110222 51011 $
  • 301359Z 30008KT 7SM BKN150 BKN300 29/23 A2986 RMK AO2 SLP111 T02940228 $

TAF TAF KNGU
Valid from the 30 at 15:00 until the 31 at 15:00 UTC


3015/3115 32008KT 9999 FEW050 SCT150 SCT300 QNH2981INS
FM301800 01009KT 9999 VCTS SCT050CB SCT300 QNH2977INS
FM302300 05007KT 9999 FEW040 SCT150 QNH2982INS
FM310900 04012KT 9999 SCT030 QNH2987INS T32/3018Z T22/3110Z FN20004
KZDC FIR / North America



MET'MAP, your aeronautical weather chart ! - Copyright ORBIFLY December 2007 - Disclaimer

ORBIFLY MET'MAP TEAM :

Programming & Development : Alexandra Zaïnal
Concept & original design : Baudouin d'Aumeries
Assistance for programming : Marc-Olivier Méhu
Technical & hardware support : Manuel Goepfert

Contact : metmap@orbifly.com




SOURCES & CREDITS :

   NOAA       Earth
Advisory